Aviation Digital Data Service (ADDS)

Output produced by METARs form (1322 UTC 15 November 2018)
found at http://www.aviationweather.gov/metar/data/
 
KVCT 151120Z 1512/1612 05003KT P6SM SKC 
     FM151700 21005KT P6SM SCT250 
     FM160000 VRB03KT P6SM SKC
       
KVEL 151124Z 1512/1612 27003KT P6SM FEW250 
     FM151400 VRB03KT P6SM FEW250 
     FM152200 24005KT P6SM SCT250 
     FM160200 28004KT P6SM FEW250
       
KVGT 151120Z 1512/1612 32005KT P6SM FEW250 
     FM151500 VRB04KT P6SM FEW250 
     FM160300 32005KT P6SM SCT250
       
KVIS 151140Z 1512/1612 VRB03KT 4SM HZ FEW200
       
KVLD 151120Z 1512/1612 VRB04KT P6SM VCSH BKN007 OVC080 
     FM151500 34007KT P6SM OVC006 
     FM151800 33005KT P6SM BKN015 
     FM152200 33003KT P6SM SKC
       
KVNY 151123Z 1512/1612 36006KT P6SM SKC 
     FM152300 13006KT P6SM SCT250 
     FM160400 VRB03KT P6SM SCT250
       
TAF AMD KVPS 151300Z 1513/1616 32012G20KT 9999 BKN006 BKN015 QNH3014INS 
     TEMPO 1513/1515 35012G20KT BKN008 
     BECMG 1515/1516 32012G20KT 9999 SCT010 BKN020 BKN150 QNH3011INS 
     BECMG 1519/1520 32006KT 9999 SKC QNH3014INS TX10/1521Z TN02/1513Z
       
KVQQ 151301Z 1513/1612 35010KT P6SM OVC006 
     FM151500 30010KT P6SM SCT007 BKN010 
     FM152100 30008KT P6SM BKN015 OVC120 
     FM160200 29005KT P6SM SCT020
       
KVRB 151147Z 1512/1612 21005KT P6SM SCT005 SCT070 
     TEMPO 1512/1515 29014G20KT 4SM SHRA BKN010 
     FM151500 29010KT P6SM VCSH SCT015 BKN025 OVC040 
     FM151800 30011KT P6SM SCT030 BKN050 
     FM160000 31008KT P6SM SCT050 SCT150
       
KVTN 151120Z 1512/1612 27006KT P6SM FEW250 
     FM151500 29009KT P6SM FEW250 WS020/33040KT 
     FM151700 33020G30KT P6SM FEW250 
     FM160000 31008KT P6SM FEW250 
     FM160500 28006KT P6SM FEW250 
     FM160900 25006KT P6SM FEW250